Time;durP1;ratioP1;P1;durP2;ratioP2;P2;SDS_P1;SDS_P2;PMS_P1;PMS_P2;Temp;Humidity;BMP_temperature;BMP_pressure;BME280_temperature;BME280_humidity;BME280_pressure;Samples;Min_cycle;Max_cycle;Signal;HPM_P1;HPM_P2
2023/08/27 00:00:39;;;;;;;11.27;5.90;;;;;;;28.95;50.24;98887.59;4353056;32;33805;-75
2023/08/27 00:03:07;;;;;;;15.25;6.10;;;;;;;28.92;50.28;98885.34;4352072;32;34020;-76
2023/08/27 00:05:42;;;;;;;12.27;5.95;;;;;;;28.79;50.21;98894.81;4350797;32;33810;-74
2023/08/27 00:08:10;;;;;;;10.23;6.03;;;;;;;28.68;50.36;98899.38;4351688;32;33993;-75
2023/08/27 00:10:37;;;;;;;11.40;5.90;;;;;;;28.60;50.41;98898.94;4350590;32;34212;-72
2023/08/27 00:13:05;;;;;;;9.15;4.87;;;;;;;28.58;50.28;98901.97;4351933;32;33890;-72
2023/08/27 00:15:33;;;;;;;10.55;6.25;;;;;;;28.50;50.36;98902.38;4354144;32;33546;-72
2023/08/27 00:18:00;;;;;;;11.43;6.87;;;;;;;28.45;50.21;98900.41;4353906;32;34149;-72
2023/08/27 00:20:28;;;;;;;18.40;6.07;;;;;;;28.43;50.25;98899.81;4351682;32;33210;-71
2023/08/27 00:22:56;;;;;;;14.38;7.15;;;;;;;28.47;49.87;98905.63;4359614;32;32580;-72
2023/08/27 00:25:24;;;;;;;11.98;6.25;;;;;;;28.43;49.91;98913.56;4359818;32;33442;-71
2023/08/27 00:27:51;;;;;;;10.02;5.65;;;;;;;28.46;49.89;98902.06;4346385;32;33919;-72
2023/08/27 00:30:19;;;;;;;21.62;5.72;;;;;;;28.42;49.87;98905.56;4359085;32;34858;-73
2023/08/27 00:32:47;;;;;;;9.60;5.07;;;;;;;28.13;50.57;98905.63;4347097;32;35662;-73
2023/08/27 00:35:14;;;;;;;8.85;5.22;;;;;;;28.28;50.52;98905.03;4351986;32;33347;-73
2023/08/27 00:37:42;;;;;;;11.68;8.13;;;;;;;28.27;50.65;98909.69;4360084;32;33399;-73
2023/08/27 00:40:10;;;;;;;8.82;5.22;;;;;;;28.20;50.80;98902.72;4356911;32;34253;-73
2023/08/27 00:42:37;;;;;;;8.27;6.05;;;;;;;28.28;50.51;98902.28;4359355;32;34635;-73
2023/08/27 00:45:06;;;;;;;11.02;5.20;;;;;;;28.28;50.54;98894.88;4360785;32;33824;-73
2023/08/27 00:47:35;;;;;;;10.73;5.53;;;;;;;28.28;50.53;98894.88;4360266;32;34690;-73
2023/08/27 00:50:04;;;;;;;11.05;5.47;;;;;;;28.30;50.46;98891.88;4353744;32;34757;-73
2023/08/27 00:52:32;;;;;;;10.75;5.05;;;;;;;28.32;50.43;98896.03;4344577;32;34072;-73
2023/08/27 00:55:03;;;;;;;10.70;5.53;;;;;;;28.36;50.44;98887.28;4355535;32;34238;-73
2023/08/27 00:57:31;;;;;;;18.55;5.70;;;;;;;28.27;50.73;98878.59;4356518;32;35585;-73
2023/08/27 00:59:59;;;;;;;9.10;5.80;;;;;;;28.34;50.56;98873.75;4345873;32;34994;-72
2023/08/27 01:02:28;;;;;;;13.62;8.00;;;;;;;28.44;50.29;98867.63;4360599;32;33758;-73
2023/08/27 01:04:56;;;;;;;14.43;5.50;;;;;;;28.38;50.41;98863.94;4360856;32;34438;-73
2023/08/27 01:07:32;;;;;;;9.57;6.35;;;;;;;28.38;50.22;98874.09;4360490;32;33675;-73
2023/08/27 01:10:15;;;;;;;9.90;5.32;;;;;;;28.22;50.27;98911.53;4345176;32;33880;-73
2023/08/27 01:12:59;;;;;;;10.27;5.97;;;;;;;28.18;50.63;98896.63;4342085;32;33899;-73
2023/08/27 01:15:27;;;;;;;14.82;5.95;;;;;;;28.27;50.17;98895.94;4350640;32;32393;-73
2023/08/27 01:17:56;;;;;;;10.18;4.93;;;;;;;28.23;50.09;98907.72;4348319;32;34569;-75
2023/08/27 01:20:23;;;;;;;16.10;8.65;;;;;;;28.25;50.05;98905.53;4357530;32;33761;-73
2023/08/27 01:22:51;;;;;;;14.30;6.37;;;;;;;28.20;50.17;98909.03;4357035;32;33879;-72
2023/08/27 01:25:21;;;;;;;11.27;7.87;;;;;;;28.26;50.13;98901.72;4360667;32;33409;-73
2023/08/27 01:28:01;;;;;;;9.10;6.30;;;;;;;28.22;49.98;98906.03;4347015;32;33822;-73
2023/08/27 01:30:37;;;;;;;13.77;6.43;;;;;;;28.24;49.97;98896.44;4357892;32;33714;-73
2023/08/27 01:33:15;;;;;;;13.18;7.45;;;;;;;28.26;49.85;98891.53;4344560;32;33605;-74
2023/08/27 01:35:43;;;;;;;11.20;6.47;;;;;;;28.33;49.77;98896.87;4337086;32;34350;-73
2023/08/27 01:38:11;;;;;;;11.23;6.68;;;;;;;28.34;49.86;98893.03;4340261;32;33918;-73
2023/08/27 01:40:40;;;;;;;9.90;6.28;;;;;;;28.21;49.97;98890.63;4342461;32;34293;-72
2023/08/27 01:43:08;;;;;;;9.85;5.90;;;;;;;28.19;50.04;98893.63;4358303;32;34175;-72
2023/08/27 01:45:35;;;;;;;12.50;6.47;;;;;;;28.17;50.06;98893.03;4346347;32;34412;-72
2023/08/27 01:48:03;;;;;;;9.55;6.65;;;;;;;28.21;50.02;98880.44;4346680;32;35229;-72
2023/08/27 01:50:32;;;;;;;10.30;7.65;;;;;;;28.25;50.12;98883.50;4352160;32;34015;-72
2023/08/27 01:52:59;;;;;;;9.63;6.15;;;;;;;28.10;50.56;98882.19;4357922;32;33961;-71
2023/08/27 01:55:27;;;;;;;9.77;6.28;;;;;;;28.10;50.62;98886.88;4358859;32;33609;-72
2023/08/27 01:57:55;;;;;;;8.27;6.55;;;;;;;28.07;50.70;98887.38;4359219;32;33270;-72
2023/08/27 02:00:22;;;;;;;20.00;6.87;;;;;;;28.15;50.38;98886.09;4350202;32;34191;-72
2023/08/27 02:02:51;;;;;;;11.75;6.70;;;;;;;28.03;50.65;98898.03;4350898;32;34275;-72
2023/08/27 02:05:18;;;;;;;10.43;6.10;;;;;;;28.06;50.42;98894.78;4360673;32;34804;-72
2023/08/27 02:07:47;;;;;;;11.85;7.82;;;;;;;27.99;50.81;98896.84;4358543;32;33556;-70
2023/08/27 02:10:15;;;;;;;16.37;9.85;;;;;;;27.84;51.49;98891.09;4356221;32;34269;-74
2023/08/27 02:12:43;;;;;;;13.05;7.97;;;;;;;27.69;52.32;98893.53;4348902;32;34854;-73
2023/08/27 02:15:10;;;;;;;14.65;7.93;;;;;;;27.58;52.71;98889.78;4359693;32;33284;-75
2023/08/27 02:17:38;;;;;;;11.10;6.57;;;;;;;27.48;53.14;98887.66;4358692;32;34681;-74
2023/08/27 02:20:09;;;;;;;13.82;7.57;;;;;;;26.84;55.04;98895.09;4354855;32;34055;-74
2023/08/27 02:22:38;;;;;;;10.32;6.78;;;;;;;27.12;54.44;98900.62;4328100;32;33798;-75
2023/08/27 02:25:06;;;;;;;12.50;9.40;;;;;;;27.20;54.46;98893.16;4362172;32;33534;-74
2023/08/27 02:27:33;;;;;;;11.70;8.52;;;;;;;27.25;54.30;98896.81;4358626;32;35055;-75
2023/08/27 02:30:02;;;;;;;12.68;9.20;;;;;;;27.22;54.37;98905.53;4359816;32;34048;-75
2023/08/27 02:32:30;;;;;;;7.97;5.50;;;;;;;27.43;53.79;98887.56;4353039;32;33602;-75
2023/08/27 02:34:58;;;;;;;10.85;7.28;;;;;;;26.81;55.74;98890.09;4360132;32;35273;-75
2023/08/27 02:37:25;;;;;;;9.95;6.55;;;;;;;27.25;54.43;98901.47;4356498;32;33591;-74
2023/08/27 02:39:53;;;;;;;11.23;6.60;;;;;;;27.04;54.97;98892.78;4361582;32;33703;-73
2023/08/27 02:42:22;;;;;;;10.65;6.22;;;;;;;27.03;54.97;98891.13;4368407;32;34708;-73
2023/08/27 02:44:50;;;;;;;8.35;5.78;;;;;;;27.20;54.65;98893.16;4343535;32;33487;-74
2023/08/27 02:47:17;;;;;;;8.80;5.75;;;;;;;27.33;54.09;98903.84;4357208;32;32079;-74
2023/08/27 02:49:45;;;;;;;8.63;5.40;;;;;;;26.53;56.82;98901.81;4351844;32;33927;-74
2023/08/27 02:52:13;;;;;;;9.85;5.55;;;;;;;26.56;56.63;98909.56;4341545;32;35391;-74
2023/08/27 02:54:40;;;;;;;10.48;5.15;;;;;;;26.94;55.46;98907.12;4337984;32;33521;-74
2023/08/27 02:57:08;;;;;;;8.27;5.10;;;;;;;26.95;55.41;98911.53;4332149;32;33591;-74
2023/08/27 02:59:35;;;;;;;8.48;5.03;;;;;;;27.08;54.96;98913.19;4329304;33;34051;-74
2023/08/27 03:02:03;;;;;;;8.30;4.62;;;;;;;27.49;53.91;98907.72;4338697;32;34808;-74
2023/08/27 03:04:31;;;;;;;7.47;4.60;;;;;;;27.59;53.26;98903.25;4343705;32;34490;-74
2023/08/27 03:06:58;;;;;;;6.90;4.10;;;;;;;27.36;53.77;98906.94;4338626;33;34056;-74
2023/08/27 03:09:26;;;;;;;8.93;4.32;;;;;;;27.06;54.48;98901.63;4329537;33;34902;-74
2023/08/27 03:11:54;;;;;;;8.55;4.00;;;;;;;27.16;54.13;98906.53;4323489;33;33753;-74
2023/08/27 03:14:22;;;;;;;5.93;3.47;;;;;;;26.84;55.05;98903.34;4321147;33;33264;-74
2023/08/27 03:16:49;;;;;;;6.30;3.87;;;;;;;26.90;54.90;98905.09;4327996;33;33611;-74
2023/08/27 03:19:17;;;;;;;5.82;3.08;;;;;;;26.75;55.15;98919.34;4329435;33;34704;-74
2023/08/27 03:21:45;;;;;;;7.10;3.85;;;;;;;26.98;54.54;98912.97;4328560;33;34226;-74
2023/08/27 03:24:12;;;;;;;10.57;3.35;;;;;;;26.89;54.62;98911.66;4353878;32;34329;-74
2023/08/27 03:26:40;;;;;;;7.32;3.95;;;;;;;26.55;55.57;98919.69;4356276;32;32573;-71
2023/08/27 03:29:09;;;;;;;6.37;3.67;;;;;;;26.42;55.85;98909.75;4351722;32;35041;-70
2023/08/27 03:31:36;;;;;;;8.38;4.10;;;;;;;26.67;55.27;98922.44;4357309;32;34521;-72
2023/08/27 03:34:04;;;;;;;6.55;4.20;;;;;;;26.71;54.76;98915.41;4356299;32;33072;-74
2023/08/27 03:36:32;;;;;;;4.30;2.33;;;;;;;26.67;54.88;98914.19;4359191;32;33770;-75
2023/08/27 03:39:00;;;;;;;14.60;2.75;;;;;;;26.78;54.10;98924.34;4351254;32;33966;-75
2023/08/27 03:41:28;;;;;;;6.05;2.67;;;;;;;26.91;53.67;98923.25;4354690;32;33959;-75
2023/08/27 03:43:56;;;;;;;8.07;3.55;;;;;;;26.64;54.07;98931.12;4362068;32;33570;-75
2023/08/27 03:46:23;;;;;;;4.20;2.42;;;;;;;26.87;53.40;98930.28;4361086;32;33681;-75
2023/08/27 03:48:51;;;;;;;6.25;2.20;;;;;;;26.17;55.02;98929.19;4351921;32;35382;-75
2023/08/27 03:51:19;;;;;;;5.95;2.62;;;;;;;26.14;55.08;98929.62;4362216;32;34904;-76
2023/08/27 03:53:46;;;;;;;6.70;3.17;;;;;;;26.20;54.92;98923.22;4358357;32;33409;-75
2023/08/27 03:56:15;;;;;;;3.87;2.72;;;;;;;26.18;54.87;98922.59;4348709;32;33224;-76
2023/08/27 03:58:43;;;;;;;4.37;2.28;;;;;;;25.70;55.87;98926.25;4359406;32;34869;-75
2023/08/27 04:01:10;;;;;;;5.18;2.72;;;;;;;25.82;55.85;98931.81;4359103;32;32826;-75
2023/08/27 04:03:38;;;;;;;6.07;2.33;;;;;;;26.19;54.57;98937.16;4356981;32;32417;-75
2023/08/27 04:06:07;;;;;;;4.03;2.35;;;;;;;26.09;54.97;98947.88;4358066;32;35044;-71
2023/08/27 04:08:34;;;;;;;5.10;3.08;;;;;;;26.24;54.43;98940.03;4355064;32;33710;-73
2023/08/27 04:11:04;;;;;;;5.05;2.05;;;;;;;26.28;54.34;98935.75;4356326;32;34274;-76
2023/08/27 04:13:31;;;;;;;3.75;2.08;;;;;;;26.56;53.55;98943.31;4357979;32;32979;-76
2023/08/27 04:16:05;;;;;;;5.05;2.40;;;;;;;26.59;53.56;98955.72;4355317;32;33129;-75
2023/08/27 04:18:34;;;;;;;;;;;;;;;26.48;53.56;98949.16;4353368;32;33838;-75
2023/08/27 04:21:03;;;;;;;5.22;2.12;;;;;;;26.59;53.08;98947.50;4357372;32;34156;-77
2023/08/27 04:23:32;;;;;;;4.53;2.33;;;;;;;26.65;52.90;98941.06;4359515;32;33991;-75
2023/08/27 04:26:02;;;;;;;3.53;1.52;;;;;;;26.56;52.95;98937.81;4360280;32;33602;-76
2023/08/27 04:28:31;;;;;;;4.87;2.42;;;;;;;26.64;52.36;98934.72;4347533;32;33897;-76
2023/08/27 04:30:59;;;;;;;4.32;1.58;;;;;;;26.73;52.25;98928.88;4356688;32;34137;-76
2023/08/27 04:33:28;;;;;;;8.20;2.03;;;;;;;26.81;51.91;98923.88;4356146;32;33763;-76
2023/08/27 04:35:55;;;;;;;5.47;1.95;;;;;;;26.91;51.79;98928.75;4357028;32;34356;-76
2023/08/27 04:38:23;;;;;;;3.03;1.58;;;;;;;27.06;51.28;98925.47;4358522;32;35212;-76
2023/08/27 04:40:51;;;;;;;3.53;1.87;;;;;;;27.28;50.71;98931.19;4362782;32;33910;-77
2023/08/27 04:43:19;;;;;;;4.75;2.08;;;;;;;27.29;50.37;98936.47;4360014;32;33261;-75
2023/08/27 04:45:47;;;;;;;2.53;1.35;;;;;;;27.23;50.54;98934.69;4360139;32;33575;-75
2023/08/27 04:48:16;;;;;;;2.67;1.65;;;;;;;27.22;50.64;98923.94;4351592;32;35171;-76
2023/08/27 04:50:45;;;;;;;3.50;1.58;;;;;;;27.31;50.41;98925.22;4360922;32;34084;-76
2023/08/27 04:53:13;;;;;;;4.05;1.30;;;;;;;27.22;50.54;98930.25;4360984;32;32416;-74
2023/08/27 04:55:42;;;;;;;8.23;2.25;;;;;;;27.18;50.70;98924.41;4358884;32;33766;-73
2023/08/27 04:58:09;;;;;;;3.30;1.87;;;;;;;27.18;50.86;98921.66;4355814;32;34125;-74
2023/08/27 05:00:37;;;;;;;2.70;1.25;;;;;;;27.25;50.79;98924.28;4358848;32;34812;-76
2023/08/27 05:03:05;;;;;;;3.03;1.42;;;;;;;27.30;50.58;98927.13;4358334;32;34583;-75
2023/08/27 05:05:33;;;;;;;5.50;1.35;;;;;;;27.23;50.89;98931.94;4360642;32;34753;-75
2023/08/27 05:08:00;;;;;;;4.85;1.58;;;;;;;27.09;51.39;98942.31;4357044;32;33723;-75
2023/08/27 05:10:29;;;;;;;2.37;1.30;;;;;;;27.14;51.46;98944.38;4357805;32;34086;-76
2023/08/27 05:12:57;;;;;;;2.60;1.52;;;;;;;27.00;51.84;98946.53;4355582;32;33315;-74
2023/08/27 05:15:24;;;;;;;3.03;1.50;;;;;;;27.18;51.27;98948.31;4353329;32;34766;-71
2023/08/27 05:17:53;;;;;;;2.95;1.35;;;;;;;26.69;52.92;98953.22;4360496;32;33831;-72
2023/08/27 05:20:21;;;;;;;1.62;1.10;;;;;;;27.55;50.78;98953.47;4359360;32;34227;-71
2023/08/27 05:22:48;;;;;;;4.80;2.28;;;;;;;28.02;49.46;98956.84;4351404;32;34322;-70
2023/08/27 05:25:17;;;;;;;4.50;2.28;;;;;;;28.44;48.65;98950.19;4348457;32;33899;-72
2023/08/27 05:27:44;;;;;;;2.95;1.85;;;;;;;28.82;47.71;98940.31;4356418;32;33531;-75
2023/08/27 05:30:14;;;;;;;4.78;1.95;;;;;;;28.50;48.40;98936.25;4361360;32;33753;-73
2023/08/27 05:32:43;;;;;;;3.35;1.70;;;;;;;28.70;47.96;98934.87;4350391;32;33317;-75
2023/08/27 05:35:11;;;;;;;3.70;2.30;;;;;;;28.67;48.14;98929.88;4361716;32;32694;-78
2023/08/27 05:37:38;;;;;;;6.03;2.42;;;;;;;28.82;47.47;98921.84;4356731;32;34960;-72
2023/08/27 05:40:08;;;;;;;8.82;1.60;;;;;;;30.01;45.05;98917.53;4357917;32;33981;-72
2023/08/27 05:42:36;;;;;;;5.47;2.45;;;;;;;30.55;43.49;98919.37;4359141;32;33383;-72
2023/08/27 05:45:04;;;;;;;5.43;1.98;;;;;;;31.21;42.13;98924.50;4358808;32;34625;-72
2023/08/27 05:47:32;;;;;;;2.60;1.37;;;;;;;31.79;40.94;98934.41;4356182;32;34051;-72
2023/08/27 05:50:00;;;;;;;5.85;1.60;;;;;;;31.92;40.64;98940.56;4347063;32;34965;-72
2023/08/27 05:52:29;;;;;;;4.32;2.00;;;;;;;31.92;40.75;98937.78;4355340;32;33254;-73
2023/08/27 05:54:57;;;;;;;4.82;2.08;;;;;;;31.50;41.46;98938.75;4360444;32;33688;-72
2023/08/27 05:57:25;;;;;;;3.90;1.87;;;;;;;31.09;42.69;98944.91;4348402;32;33513;-73
2023/08/27 05:59:52;;;;;;;7.03;2.35;;;;;;;30.78;43.50;98948.56;4360557;32;35128;-73
2023/08/27 06:02:20;;;;;;;3.42;1.80;;;;;;;30.60;44.12;98942.34;4352615;32;33200;-72
2023/08/27 06:04:49;;;;;;;5.62;2.22;;;;;;;30.32;44.86;98940.75;4355875;32;33950;-71
2023/08/27 06:07:16;;;;;;;4.65;2.20;;;;;;;29.75;46.11;98938.50;4356929;32;33967;-72
2023/08/27 06:09:44;;;;;;;6.65;2.37;;;;;;;29.44;46.92;98937.31;4356452;32;32417;-73
2023/08/27 06:12:12;;;;;;;4.10;2.22;;;;;;;29.83;46.21;98934.47;4352939;32;34386;-75
2023/08/27 06:14:39;;;;;;;6.72;2.65;;;;;;;29.36;47.54;98932.25;4359074;32;34884;-73
2023/08/27 06:17:07;;;;;;;7.05;2.78;;;;;;;29.13;47.49;98934.16;4357417;32;33761;-73
2023/08/27 06:19:35;;;;;;;7.22;3.00;;;;;;;29.27;47.65;98920.00;4335304;32;32951;-73
2023/08/27 06:22:15;;;;;;;4.65;2.58;;;;;;;29.48;47.26;98921.91;4358900;32;34682;-74
2023/08/27 06:24:44;;;;;;;4.53;2.35;;;;;;;29.56;46.66;98918.69;4355450;32;34981;-74
2023/08/27 06:27:13;;;;;;;5.50;2.97;;;;;;;29.31;47.69;98924.75;4353182;32;34273;-74
2023/08/27 06:29:44;;;;;;;7.18;3.15;;;;;;;29.12;48.13;98921.50;4347504;32;35028;-74
2023/08/27 06:32:15;;;;;;;7.70;3.00;;;;;;;28.96;48.58;98925.94;4355857;32;33423;-75
2023/08/27 06:34:42;;;;;;;5.68;2.97;;;;;;;29.21;47.99;98916.34;4353086;32;33605;-76
2023/08/27 06:37:10;;;;;;;5.28;2.72;;;;;;;29.16;48.21;98908.84;4350085;32;33878;-76
2023/08/27 06:39:38;;;;;;;5.15;2.87;;;;;;;29.59;47.30;98915.41;4356281;32;34895;-76
2023/08/27 06:42:06;;;;;;;5.45;3.50;;;;;;;29.86;46.23;98906.38;4351610;32;33190;-77
2023/08/27 06:44:33;;;;;;;8.57;2.67;;;;;;;29.77;47.11;98907.94;4359622;32;33796;-76
2023/08/27 06:47:01;;;;;;;5.60;3.70;;;;;;;29.97;46.56;98919.16;4357549;32;35185;-74
2023/08/27 06:49:30;;;;;;;10.25;4.68;;;;;;;30.06;46.27;98917.59;4355549;32;34952;-73
2023/08/27 06:51:58;;;;;;;8.63;3.67;;;;;;;30.21;45.81;98910.56;4359733;32;33605;-75
2023/08/27 06:54:25;;;;;;;7.20;3.67;;;;;;;30.22;45.74;98915.81;4353330;32;34547;-76
2023/08/27 06:56:53;;;;;;;6.10;3.90;;;;;;;30.05;46.14;98909.56;4357251;32;34930;-76
2023/08/27 06:59:21;;;;;;;7.03;3.37;;;;;;;30.01;46.24;98912.00;4360201;32;33789;-77
2023/08/27 07:01:48;;;;;;;5.43;3.40;;;;;;;30.01;46.52;98913.94;4345400;32;140160;-76
2023/08/27 07:04:16;;;;;;;5.22;3.17;;;;;;;29.99;46.58;98916.16;4353679;32;35788;-76
2023/08/27 07:06:44;;;;;;;6.75;2.75;;;;;;;29.87;47.64;98908.84;4356556;32;34037;-76
2023/08/27 07:09:11;;;;;;;11.77;4.32;;;;;;;29.93;47.31;98910.56;4356456;32;35152;-76
2023/08/27 07:11:39;;;;;;;6.82;4.05;;;;;;;29.93;47.40;98918.84;4357254;32;34160;-76
2023/08/27 07:14:06;;;;;;;8.48;5.28;;;;;;;30.07;47.53;98913.72;4358362;32;34665;-76
2023/08/27 07:16:34;;;;;;;10.95;5.82;;;;;;;30.14;46.87;98916.25;4355509;32;34028;-76
2023/08/27 07:19:02;;;;;;;9.15;4.45;;;;;;;29.87;47.10;98919.88;4354335;32;33882;-76
2023/08/27 07:21:29;;;;;;;7.40;4.35;;;;;;;30.12;47.26;98921.22;4358862;32;33438;-76
2023/08/27 07:23:58;;;;;;;8.43;5.05;;;;;;;30.10;47.03;98918.72;4353677;32;33496;-76
2023/08/27 07:26:27;;;;;;;7.60;4.78;;;;;;;30.23;46.72;98920.25;4353816;32;34729;-76
2023/08/27 07:28:55;;;;;;;7.70;5.07;;;;;;;30.18;47.00;98920.19;4353918;32;34868;-76
2023/08/27 07:31:24;;;;;;;8.02;4.85;;;;;;;30.28;47.09;98900.16;4351724;32;33281;-76
2023/08/27 07:33:52;;;;;;;7.40;5.75;;;;;;;30.35;47.06;98904.34;4352054;32;33858;-75
2023/08/27 07:36:20;;;;;;;9.30;5.15;;;;;;;30.15;47.53;98912.44;4352636;32;33479;-76
2023/08/27 07:38:48;;;;;;;9.65;5.10;;;;;;;29.90;47.65;98902.81;4359045;32;34171;-76
2023/08/27 07:41:15;;;;;;;10.23;6.03;;;;;;;30.03;48.18;98903.47;4354114;32;34518;-76
2023/08/27 07:43:43;;;;;;;8.98;5.82;;;;;;;30.24;47.96;98894.31;4356395;32;33826;-76
2023/08/27 07:46:11;;;;;;;9.88;5.37;;;;;;;30.37;47.33;98885.59;4345846;32;33805;-76
2023/08/27 07:48:38;;;;;;;9.57;6.28;;;;;;;30.45;47.27;98888.94;4352264;32;33962;-76
2023/08/27 07:51:06;;;;;;;12.52;6.03;;;;;;;30.19;48.04;98891.50;4346132;32;33303;-76
2023/08/27 07:53:34;;;;;;;8.32;6.15;;;;;;;30.52;47.81;98878.50;4349897;32;33689;-76
2023/08/27 07:56:02;;;;;;;11.52;7.22;;;;;;;30.66;47.48;98884.38;4356708;32;33647;-75
2023/08/27 07:58:31;;;;;;;10.68;6.70;;;;;;;30.68;47.70;98877.50;4353260;32;34046;-76
2023/08/27 08:01:00;;;;;;;10.20;5.85;;;;;;;30.57;47.99;98878.53;4356121;32;33248;-76
2023/08/27 08:03:28;;;;;;;10.75;6.70;;;;;;;30.80;47.74;98880.91;4358378;32;33700;-76
2023/08/27 08:05:56;;;;;;;17.37;5.82;;;;;;;30.86;47.67;98873.50;4356129;32;33928;-75
2023/08/27 08:08:23;;;;;;;8.88;6.10;;;;;;;30.72;48.07;98877.78;4359275;32;33875;-76
2023/08/27 08:10:55;;;;;;;13.43;6.12;;;;;;;30.30;48.33;98881.37;4353316;32;33256;-76
2023/08/27 08:13:23;;;;;;;9.10;5.30;;;;;;;31.03;47.70;98874.13;4356905;32;33513;-76
2023/08/27 08:15:52;;;;;;;12.80;7.15;;;;;;;30.90;48.85;98879.31;4352429;32;35245;-76
2023/08/27 08:18:19;;;;;;;9.43;6.03;;;;;;;31.09;47.59;98881.34;4358124;32;34866;-77
2023/08/27 08:20:47;;;;;;;11.35;7.22;;;;;;;31.02;47.46;98877.16;4351627;32;34458;-76
2023/08/27 08:23:15;;;;;;;10.20;6.70;;;;;;;30.86;47.08;98877.09;4351332;32;34775;-77
2023/08/27 08:25:43;;;;;;;8.40;6.10;;;;;;;31.30;46.45;98868.44;4348139;32;33907;-76
2023/08/27 08:28:10;;;;;;;9.15;6.57;;;;;;;31.53;45.68;98874.59;4345198;32;34173;-77
2023/08/27 08:30:45;;;;;;;9.90;6.93;;;;;;;31.51;44.47;98868.50;4353430;32;33099;-78
2023/08/27 08:33:12;;;;;;;11.20;6.05;;;;;;;31.79;43.96;98868.00;4354246;32;32744;-79
2023/08/27 08:35:41;;;;;;;10.70;6.62;;;;;;;31.61;43.38;98863.00;4355413;32;34582;-79
2023/08/27 08:38:09;;;;;;;12.95;6.78;;;;;;;31.48;42.69;98860.75;4359218;32;34931;-80
2023/08/27 08:40:46;;;;;;;12.32;7.28;;;;;;;31.43;44.46;98860.72;4356906;32;33315;-83
2023/08/27 08:43:23;;;;;;;9.63;7.03;;;;;;;31.63;44.59;98866.31;4361308;32;33198;-80
2023/08/27 08:46:03;;;;;;;11.27;7.75;;;;;;;31.51;43.64;98863.81;4351874;32;34097;-81
2023/08/27 08:48:38;;;;;;;12.20;7.93;;;;;;;31.64;43.06;98869.91;4358271;32;34313;-81
2023/08/27 08:51:10;;;;;;;10.77;7.87;;;;;;;31.82;42.84;98871.34;4343674;32;34346;-80
2023/08/27 08:53:44;;;;;;;11.18;7.75;;;;;;;31.72;42.63;98864.69;4355619;32;33945;-81
2023/08/27 08:56:22;;;;;;;11.05;7.40;;;;;;;31.29;41.98;98865.91;4352799;32;34711;-81
2023/08/27 08:58:54;;;;;;;11.07;7.40;;;;;;;32.07;41.13;98865.84;4354564;32;33824;-79
2023/08/27 09:01:23;;;;;;;8.15;6.50;;;;;;;31.73;42.95;98866.34;4353435;32;32972;-82
2023/08/27 09:03:51;;;;;;;9.18;7.25;;;;;;;32.03;41.76;98855.59;4345564;32;34662;-81
2023/08/27 09:06:19;;;;;;;13.27;7.05;;;;;;;31.79;41.90;98867.19;4355012;32;35288;-80
2023/08/27 09:08:47;;;;;;;12.43;7.55;;;;;;;31.89;41.32;98863.63;4358031;32;33998;-72
2023/08/27 09:11:16;;;;;;;12.45;8.38;;;;;;;31.65;42.85;98863.28;4354073;32;34622;-80
2023/08/27 09:13:44;;;;;;;11.95;7.75;;;;;;;31.86;42.90;98861.38;4356952;32;34964;-81
2023/08/27 09:16:11;;;;;;;12.88;7.70;;;;;;;32.05;42.32;98856.16;4354892;32;32592;-82
2023/08/27 09:18:39;;;;;;;9.95;7.22;;;;;;;32.27;42.72;98853.13;4353060;32;34321;-81
2023/08/27 09:21:07;;;;;;;10.90;7.95;;;;;;;32.10;41.94;98850.59;4342469;32;33565;-80
2023/08/27 09:23:37;;;;;;;11.88;7.97;;;;;;;32.33;41.56;98851.97;4353664;32;34645;-80
2023/08/27 09:26:06;;;;;;;13.43;7.50;;;;;;;32.44;41.98;98851.72;4343278;32;33883;-78
2023/08/27 09:28:34;;;;;;;13.73;8.32;;;;;;;32.09;41.72;98852.56;4342318;32;33422;-77
2023/08/27 09:31:02;;;;;;;12.00;8.02;;;;;;;32.24;42.12;98847.00;4358245;32;33455;-77
2023/08/27 09:33:41;;;;;;;8.30;6.07;;;;;;;32.47;40.44;98840.09;4341989;32;34645;-76
2023/08/27 09:36:09;;;;;;;14.57;8.20;;;;;;;32.35;41.85;98844.22;4359999;32;33800;-78
2023/08/27 09:38:39;;;;;;;10.32;8.23;;;;;;;32.75;41.61;98837.81;4360933;32;34022;-77
2023/08/27 09:41:17;;;;;;;13.43;9.23;;;;;;;32.84;41.89;98840.81;4355853;32;33472;-80
2023/08/27 09:43:52;;;;;;;10.75;7.80;;;;;;;33.03;40.74;98832.72;4359714;32;33442;-80
2023/08/27 09:46:20;;;;;;;12.80;8.75;;;;;;;32.84;39.59;98832.50;4358098;32;33598;-77
2023/08/27 09:49:06;;;;;;;10.02;7.72;;;;;;;32.86;38.11;98841.34;4349351;32;34006;-77
2023/08/27 09:51:36;;;;;;;11.10;8.32;;;;;;;33.06;38.27;98837.69;4360965;32;34391;-77
2023/08/27 09:54:14;;;;;;;10.15;7.90;;;;;;;33.18;38.61;98832.66;4357236;32;34730;-79
2023/08/27 09:56:50;;;;;;;10.65;8.18;;;;;;;33.41;38.91;98836.69;4354462;32;33851;-81
2023/08/27 09:59:19;;;;;;;12.82;8.77;;;;;;;33.23;39.22;98838.19;4358294;32;34011;-79
2023/08/27 10:01:50;;;;;;;10.57;8.55;;;;;;;33.79;38.14;98839.78;4355414;32;34321;-77
2023/08/27 10:04:20;;;;;;;12.18;9.15;;;;;;;33.98;37.98;98837.97;4351180;32;34954;-77
2023/08/27 10:06:48;;;;;;;12.60;8.75;;;;;;;33.78;38.00;98836.19;4352939;32;34877;-76
2023/08/27 10:09:16;;;;;;;11.55;8.88;;;;;;;33.79;37.67;98834.25;4350875;32;34813;-77
2023/08/27 10:11:45;;;;;;;11.70;8.63;;;;;;;33.91;37.06;98829.16;4352785;32;34752;-77
2023/08/27 10:14:15;;;;;;;11.93;9.43;;;;;;;33.60;38.21;98834.91;4350099;32;33709;-77
2023/08/27 10:16:44;;;;;;;11.95;8.77;;;;;;;34.27;37.41;98831.62;4353768;32;35180;-78
2023/08/27 10:19:12;;;;;;;15.38;8.88;;;;;;;34.45;37.57;98830.09;4357350;32;33946;-80
2023/08/27 10:21:39;;;;;;;11.93;9.15;;;;;;;34.33;37.31;98822.16;4360718;32;34589;-79
2023/08/27 10:24:07;;;;;;;11.55;9.13;;;;;;;34.48;37.24;98829.47;4358113;32;33553;-78
2023/08/27 10:26:35;;;;;;;12.65;8.65;;;;;;;34.83;37.63;98810.78;4347106;32;33731;-78
2023/08/27 10:29:03;;;;;;;13.50;8.80;;;;;;;35.09;36.59;98801.03;4359906;32;34195;-79
2023/08/27 10:31:31;;;;;;;12.40;9.05;;;;;;;35.12;37.02;98802.34;4350038;32;34285;-76
2023/08/27 10:33:59;;;;;;;11.30;9.50;;;;;;;35.05;36.71;98804.69;4356685;32;33537;-76
2023/08/27 10:36:33;;;;;;;12.82;9.15;;;;;;;35.36;36.27;98802.31;4350566;32;34977;-75
2023/08/27 10:39:02;;;;;;;;;;;;;;;35.53;36.78;98799.03;4334278;32;34108;-75
2023/08/27 10:41:34;;;;;;;12.77;8.85;;;;;;;35.65;35.49;98800.22;4344825;32;34156;-78
2023/08/27 10:44:02;;;;;;;12.37;8.93;;;;;;;35.54;35.71;98798.75;4358303;32;33184;-78
2023/08/27 10:46:30;;;;;;;11.98;9.00;;;;;;;35.36;34.05;98791.19;4356644;32;34961;-79
2023/08/27 10:48:57;;;;;;;14.80;9.63;;;;;;;35.43;34.78;98797.19;4347139;32;34008;-80
2023/08/27 10:51:31;;;;;;;11.95;8.93;;;;;;;34.92;35.92;98793.12;4356427;32;34483;-77
2023/08/27 10:54:00;;;;;;;12.10;8.63;;;;;;;34.58;36.15;98790.53;4348920;32;34635;-79
2023/08/27 10:56:31;;;;;;;11.32;8.13;;;;;;;35.58;35.32;98780.31;4355074;32;33970;-82
2023/08/27 10:59:00;;;;;;;12.37;8.73;;;;;;;35.15;34.50;98791.47;4355722;32;34853;-83
2023/08/27 11:01:28;;;;;;;11.32;8.38;;;;;;;35.64;33.90;98787.44;4356428;32;33539;-80
2023/08/27 11:04:01;;;;;;;12.20;9.40;;;;;;;35.79;34.58;98788.31;4357440;32;34747;-78
2023/08/27 11:06:48;;;;;;;11.60;8.63;;;;;;;35.06;35.58;98786.88;4356459;32;33748;-77
2023/08/27 11:09:24;;;;;;;15.93;9.30;;;;;;;35.86;33.43;98774.81;4352746;32;33722;-77
2023/08/27 11:12:03;;;;;;;15.77;8.88;;;;;;;35.60;33.75;98777.19;4358821;32;33745;-74
2023/08/27 11:14:36;;;;;;;11.85;8.00;;;;;;;35.91;33.49;98781.13;4355688;32;33417;-78
2023/08/27 11:17:05;;;;;;;12.07;8.87;;;;;;;35.59;34.32;98775.56;4355808;32;34017;-79
2023/08/27 11:19:37;;;;;;;14.63;8.65;;;;;;;35.84;33.53;98780.72;4352928;32;34007;-80
2023/08/27 11:22:17;;;;;;;10.40;8.93;;;;;;;35.85;33.40;98776.78;4358401;32;33516;-77
2023/08/27 11:24:49;;;;;;;9.68;7.70;;;;;;;35.80;32.77;98773.28;4341783;32;34031;-82
2023/08/27 11:27:17;;;;;;;12.95;8.07;;;;;;;36.34;32.42;98778.19;4358694;32;33736;-80
2023/08/27 11:29:51;;;;;;;12.20;8.75;;;;;;;36.38;32.14;98775.59;4357882;32;33984;-79
2023/08/27 11:32:20;;;;;;;;;;;;;;;36.36;32.47;98778.69;4322312;33;33214;-78
2023/08/27 11:34:52;;;;;;;19.37;8.85;;;;;;;36.58;31.80;98779.97;4321667;33;35001;-79
2023/08/27 11:37:29;;;;;;;9.85;8.23;;;;;;;36.45;32.59;98775.19;4325071;33;35323;-75